createdAt,value
2019-04-20T00:01:48.254Z,8.00
2019-04-20T00:04:22.551Z,7.90
2019-04-20T00:06:51.366Z,7.90
2019-04-20T00:09:21.107Z,7.80
2019-04-20T00:11:57.525Z,7.90
2019-04-20T00:14:24.036Z,7.80
2019-04-20T00:16:48.319Z,7.80
2019-04-20T00:19:22.642Z,7.80
2019-04-20T00:21:55.323Z,7.80
2019-04-20T00:24:26.945Z,7.90
2019-04-20T00:27:29.815Z,7.90
2019-04-20T00:29:41.160Z,7.90
2019-04-20T00:32:05.463Z,8.00
2019-04-20T00:34:29.452Z,7.90
2019-04-20T00:36:51.996Z,7.90
2019-04-20T00:39:21.547Z,8.00
2019-04-20T00:41:56.206Z,8.00
2019-04-20T00:44:27.595Z,7.90
2019-04-20T00:47:04.783Z,8.00
2019-04-20T00:49:36.261Z,8.10
2019-04-20T00:52:19.133Z,8.00
2019-04-20T00:54:22.254Z,8.00
2019-04-20T00:56:51.979Z,8.00
2019-04-20T00:59:36.464Z,8.10
2019-04-20T01:02:10.625Z,8.10
2019-04-20T01:04:45.978Z,8.20
2019-04-20T01:07:11.644Z,8.20
2019-04-20T01:09:45.464Z,8.20
2019-04-20T01:12:18.228Z,8.20
2019-04-20T01:14:51.410Z,8.20
2019-04-20T01:17:14.563Z,8.20
2019-04-20T01:19:43.027Z,8.10
2019-04-20T01:22:16.329Z,8.20
2019-04-20T01:24:46.252Z,8.20
2019-04-20T01:27:28.410Z,8.20
2019-04-20T01:29:46.985Z,8.20
2019-04-20T01:32:23.218Z,8.20
2019-04-20T01:34:55.112Z,8.30
2019-04-20T01:37:25.759Z,8.30
2019-04-20T01:39:48.391Z,8.20
2019-04-20T01:42:13.139Z,8.20
2019-04-20T01:44:45.493Z,8.20
2019-04-20T01:47:13.283Z,8.20
2019-04-20T01:49:43.558Z,8.20
2019-04-20T01:52:20.051Z,8.30
2019-04-20T01:55:04.862Z,8.10
2019-04-20T01:57:32.997Z,8.10
2019-04-20T02:00:13.202Z,8.10
2019-04-20T02:02:46.077Z,8.00
2019-04-20T02:05:17.111Z,7.90
2019-04-20T02:07:46.588Z,7.90
2019-04-20T02:10:13.409Z,7.90
2019-04-20T02:12:42.274Z,7.90
2019-04-20T02:15:21.138Z,7.80
2019-04-20T02:17:51.925Z,7.90
2019-04-20T02:20:33.017Z,7.80
2019-04-20T02:22:57.067Z,7.80
2019-04-20T02:25:12.183Z,7.80
2019-04-20T02:27:48.155Z,7.80
2019-04-20T02:30:47.842Z,7.70
2019-04-20T02:33:31.504Z,7.70
2019-04-20T02:38:54.549Z,7.50
2019-04-20T02:41:13.574Z,7.50
2019-04-20T02:43:46.806Z,7.50
2019-04-20T02:45:58.084Z,7.50
2019-04-20T02:48:30.204Z,7.50
2019-04-20T02:51:06.572Z,7.50
2019-04-20T02:53:41.464Z,7.50
2019-04-20T02:56:15.198Z,7.40
2019-04-20T02:58:45.541Z,7.30
2019-04-20T03:01:00.189Z,7.30
2019-04-20T03:03:17.022Z,7.30
2019-04-20T03:05:47.703Z,7.30
2019-04-20T03:08:23.269Z,7.30
2019-04-20T03:11:05.865Z,7.20
2019-04-20T03:13:26.604Z,7.20
2019-04-20T03:16:00.363Z,7.30
2019-04-20T03:18:25.272Z,7.20
2019-04-20T03:21:04.571Z,7.20
2019-04-20T03:23:35.712Z,7.30
2019-04-20T03:25:58.388Z,7.30
2019-04-20T03:28:32.852Z,7.30
2019-04-20T03:36:16.097Z,7.30
2019-04-20T03:38:34.839Z,7.20
2019-04-20T03:40:55.350Z,7.20
2019-04-20T03:43:14.435Z,7.20
2019-04-20T03:45:51.710Z,7.30
2019-04-20T03:48:33.363Z,7.20
2019-04-20T03:51:02.044Z,7.20
2019-04-20T03:53:34.364Z,7.30
2019-04-20T03:56:11.812Z,7.40
2019-04-20T03:58:47.125Z,7.40
2019-04-20T04:01:27.503Z,7.40
2019-04-20T04:04:05.221Z,7.50
2019-04-20T04:06:26.476Z,7.50
2019-04-20T04:09:02.381Z,7.50
2019-04-20T04:11:35.128Z,7.50
2019-04-20T04:13:48.149Z,7.70
2019-04-20T04:16:19.942Z,7.70
2019-04-20T04:18:54.438Z,7.70
2019-04-20T04:21:29.037Z,7.80
2019-04-20T04:24:02.215Z,7.80
2019-04-20T04:26:35.288Z,8.00
2019-04-20T04:29:13.696Z,8.00
2019-04-20T04:31:39.007Z,8.10
2019-04-20T04:34:23.904Z,8.10
2019-04-20T04:36:38.727Z,8.20
2019-04-20T04:39:11.432Z,8.20
2019-04-20T04:41:36.524Z,8.30
2019-04-20T04:44:04.524Z,8.30
2019-04-20T04:46:18.936Z,8.50
2019-04-20T04:48:50.788Z,8.50
2019-04-20T04:51:22.979Z,8.60
2019-04-20T04:53:58.099Z,8.60
2019-04-20T04:56:20.584Z,8.70
2019-04-20T04:58:49.308Z,8.70
2019-04-20T05:01:24.861Z,8.60
2019-04-20T05:04:14.733Z,8.70
2019-04-20T05:06:35.592Z,8.70
2019-04-20T05:08:54.983Z,8.70
2019-04-20T05:11:21.615Z,8.70
2019-04-20T05:13:56.636Z,8.80
2019-04-20T05:16:43.814Z,8.90
2019-04-20T05:19:13.392Z,8.90
2019-04-20T05:21:57.167Z,9.00
2019-04-20T05:24:22.939Z,9.10
2019-04-20T05:27:06.106Z,9.00
2019-04-20T05:29:14.121Z,9.10
2019-04-20T05:31:44.845Z,9.20
2019-04-20T05:34:30.931Z,9.10
2019-04-20T05:36:56.843Z,9.10
2019-04-20T05:39:32.944Z,9.30
2019-04-20T05:41:57.169Z,9.30
2019-04-20T05:44:24.788Z,9.30
2019-04-20T05:47:02.536Z,9.40
2019-04-20T05:49:31.766Z,9.30
2019-04-20T05:52:11.806Z,9.40
2019-04-20T05:54:32.662Z,9.40
2019-04-20T05:57:07.657Z,9.40
2019-04-20T05:59:28.292Z,9.50
2019-04-20T06:02:03.566Z,9.60
2019-04-20T06:04:46.359Z,9.60
2019-04-20T06:06:59.742Z,9.80
2019-04-20T06:09:34.182Z,9.80
2019-04-20T06:14:28.606Z,10.00
2019-04-20T06:17:16.031Z,10.20
2019-04-20T06:19:39.663Z,10.20
2019-04-20T06:22:34.947Z,10.30
2019-04-20T06:25:19.212Z,10.30
2019-04-20T06:27:35.267Z,10.30
2019-04-20T06:30:03.977Z,10.30
2019-04-20T06:33:12.873Z,10.20
2019-04-20T06:36:00.948Z,10.30
2019-04-20T06:38:29.621Z,10.10
2019-04-20T06:43:11.147Z,10.00
2019-04-20T06:45:51.115Z,10.20
2019-04-20T06:50:41.556Z,10.20
2019-04-20T06:53:25.579Z,10.40
2019-04-20T06:55:48.606Z,10.40
2019-04-20T06:58:38.166Z,10.10
2019-04-20T07:00:46.618Z,10.40
2019-04-20T07:03:31.252Z,10.40
2019-04-20T07:06:01.890Z,10.20
2019-04-20T07:08:33.388Z,10.50
2019-04-20T07:10:51.390Z,10.60
2019-04-20T07:13:11.493Z,10.60
2019-04-20T07:16:04.087Z,10.70
2019-04-20T07:18:43.723Z,10.50
2019-04-20T07:21:25.159Z,10.40
2019-04-20T07:23:48.397Z,10.40
2019-04-20T07:26:22.343Z,10.50
2019-04-20T07:28:53.016Z,10.80
2019-04-20T07:31:17.240Z,10.70
2019-04-20T07:33:47.987Z,10.90
2019-04-20T07:36:22.551Z,10.70
2019-04-20T07:38:46.224Z,10.80
2019-04-20T07:41:23.590Z,10.90
2019-04-20T07:43:59.056Z,11.00
2019-04-20T07:46:37.658Z,11.20
2019-04-20T07:48:50.617Z,11.40
2019-04-20T07:51:06.897Z,11.50
2019-04-20T07:53:40.209Z,11.50
2019-04-20T07:56:17.666Z,11.60
2019-04-20T07:58:37.605Z,11.60
2019-04-20T08:03:55.727Z,11.70
2019-04-20T08:06:16.621Z,11.60
2019-04-20T08:08:55.883Z,11.50
2019-04-20T08:11:28.814Z,11.70
2019-04-20T08:14:05.980Z,12.00
2019-04-20T08:16:40.832Z,12.20
2019-04-20T08:19:01.243Z,12.30
2019-04-20T08:21:32.739Z,12.10
2019-04-20T08:23:57.024Z,12.00
2019-04-20T08:26:18.229Z,12.00
2019-04-20T08:28:51.042Z,12.30
2019-04-20T08:31:30.108Z,12.50
2019-04-20T08:34:31.456Z,12.80
2019-04-20T08:36:45.459Z,13.00
2019-04-20T08:39:30.420Z,13.10
2019-04-20T08:41:45.360Z,13.30
2019-04-20T08:44:36.923Z,13.00
2019-04-20T08:46:49.711Z,13.40
2019-04-20T08:49:22.144Z,13.40
2019-04-20T08:51:53.763Z,13.10
2019-04-20T08:54:14.312Z,13.20
2019-04-20T08:56:34.880Z,13.40
2019-04-20T08:58:54.991Z,13.40
2019-04-20T09:01:27.339Z,13.40
2019-04-20T09:04:04.645Z,13.90
2019-04-20T09:06:36.469Z,14.00
2019-04-20T09:09:19.420Z,14.30
2019-04-20T09:11:48.171Z,14.30
2019-04-20T09:14:00.176Z,14.60
2019-04-20T09:16:35.684Z,14.50
2019-04-20T09:19:03.627Z,14.50
2019-04-20T09:21:36.677Z,14.40
2019-04-20T09:24:22.759Z,14.60
2019-04-20T09:26:42.262Z,15.20
2019-04-20T09:29:06.869Z,15.50
2019-04-20T09:31:43.772Z,15.70
2019-04-20T09:34:23.284Z,15.30
2019-04-20T09:36:56.389Z,15.20
2019-04-20T09:39:30.443Z,15.00
2019-04-20T09:42:01.635Z,14.80
2019-04-20T09:44:39.876Z,15.50
2019-04-20T09:47:03.243Z,14.80
2019-04-20T09:49:42.504Z,15.00
2019-04-20T09:52:13.352Z,15.60
2019-04-20T09:54:51.141Z,15.20
2019-04-20T09:57:22.912Z,15.00
2019-04-20T09:59:51.306Z,14.70
2019-04-20T10:02:10.301Z,15.10
2019-04-20T10:04:33.386Z,15.50
2019-04-20T10:07:06.710Z,15.60
2019-04-20T10:09:37.290Z,15.10
2019-04-20T10:12:03.612Z,15.20
2019-04-20T10:14:33.106Z,15.80
2019-04-20T10:17:02.159Z,15.80
2019-04-20T10:19:34.039Z,15.70
2019-04-20T10:22:02.405Z,16.20
2019-04-20T10:24:32.673Z,15.90
2019-04-20T10:27:01.249Z,16.40
2019-04-20T10:29:29.725Z,16.30
2019-04-20T10:32:00.193Z,16.70
2019-04-20T10:34:28.526Z,16.10
2019-04-20T10:36:59.636Z,16.00
2019-04-20T10:39:30.790Z,16.60
2019-04-20T10:42:02.435Z,16.80
2019-04-20T10:44:30.347Z,16.40
2019-04-20T10:47:00.746Z,16.40
2019-04-20T10:49:29.490Z,16.60
2019-04-20T10:51:58.138Z,16.50
2019-04-20T10:54:26.772Z,16.50
2019-04-20T10:56:55.492Z,17.30
2019-04-20T10:59:23.987Z,17.70
2019-04-20T11:01:53.795Z,18.10
2019-04-20T11:04:22.963Z,18.90
2019-04-20T11:06:52.418Z,19.20
2019-04-20T11:09:20.726Z,18.50
2019-04-20T11:11:50.288Z,18.40
2019-04-20T11:14:26.347Z,18.10
2019-04-20T11:16:48.524Z,18.20
2019-04-20T11:19:17.154Z,18.60
2019-04-20T11:21:46.285Z,18.70
2019-04-20T11:24:16.269Z,18.60
2019-04-20T11:26:45.573Z,19.00
2019-04-20T11:29:16.075Z,19.70
2019-04-20T11:31:49.242Z,19.40
2019-04-20T11:34:21.955Z,19.30
2019-04-20T11:36:45.456Z,19.10
2019-04-20T11:39:14.743Z,19.30
2019-04-20T11:41:43.672Z,20.10
2019-04-20T11:44:13.663Z,20.80
2019-04-20T11:46:42.912Z,20.50
2019-04-20T11:49:11.683Z,20.90
2019-04-20T11:51:41.421Z,20.40
2019-04-20T11:54:10.457Z,20.60
2019-04-20T11:56:43.522Z,21.50
2019-04-20T11:59:09.569Z,20.60
2019-04-20T12:01:49.215Z,19.70
2019-04-20T12:04:25.224Z,19.80
2019-04-20T12:06:43.321Z,19.90
2019-04-20T12:09:12.862Z,19.90
2019-04-20T12:11:56.353Z,20.00
2019-04-20T12:14:12.592Z,19.90
2019-04-20T12:16:41.692Z,19.50
2019-04-20T12:19:10.538Z,20.80
2019-04-20T12:21:39.218Z,20.00
2019-04-20T12:24:07.795Z,20.80
2019-04-20T12:26:36.559Z,20.80
2019-04-20T12:29:05.718Z,21.50
2019-04-20T12:31:33.700Z,22.40
2019-04-20T12:34:02.352Z,21.50
2019-04-20T12:36:30.960Z,21.90
2019-04-20T12:38:59.442Z,21.60
2019-04-20T12:41:37.901Z,22.10
2019-04-20T12:43:59.430Z,22.00
2019-04-20T12:46:28.178Z,21.60
2019-04-20T12:48:57.682Z,20.70
2019-04-20T12:51:33.868Z,21.30
2019-04-20T12:53:56.577Z,21.90
2019-04-20T12:56:26.444Z,22.60
2019-04-20T12:58:55.791Z,23.30
2019-04-20T13:01:25.870Z,23.50
2019-04-20T13:03:55.353Z,23.30
2019-04-20T13:06:24.102Z,22.10
2019-04-20T13:08:55.933Z,23.00
2019-04-20T13:11:24.795Z,22.40
2019-04-20T13:14:32.797Z,22.70
2019-04-20T13:17:02.076Z,22.30
2019-04-20T13:19:31.198Z,22.80
2019-04-20T13:22:01.056Z,22.80
2019-04-20T13:24:29.670Z,22.80
2019-04-20T13:27:02.536Z,23.00
2019-04-20T13:29:31.424Z,22.00
2019-04-20T13:32:00.218Z,21.80
2019-04-20T13:34:28.765Z,21.90
2019-04-20T13:36:58.183Z,22.20
2019-04-20T13:39:26.965Z,20.90
2019-04-20T13:42:03.425Z,20.10
2019-04-20T13:44:27.088Z,19.50
2019-04-20T13:46:56.720Z,18.80
2019-04-20T13:49:25.493Z,18.10
2019-04-20T13:51:54.908Z,17.40
2019-04-20T13:54:26.415Z,16.80
2019-04-20T13:56:55.722Z,16.90
2019-04-20T13:59:37.904Z,16.50
2019-04-20T14:02:10.955Z,16.00
2019-04-20T14:04:41.151Z,15.80
2019-04-20T14:07:14.167Z,15.60
2019-04-20T14:09:41.568Z,15.30
2019-04-20T14:12:17.302Z,15.30
2019-04-20T14:14:41.358Z,15.50
2019-04-20T14:17:10.767Z,15.30
2019-04-20T14:19:39.483Z,15.10
2019-04-20T14:22:08.284Z,15.30
2019-04-20T14:24:37.249Z,14.80
2019-04-20T14:27:06.587Z,14.80
2019-04-20T14:29:35.398Z,14.80
2019-04-20T14:32:05.434Z,14.50
2019-04-20T14:34:35.183Z,14.70
2019-04-20T14:37:04.755Z,14.50
2019-04-20T14:39:32.673Z,14.50
2019-04-20T14:42:02.440Z,14.70
2019-04-20T14:44:32.052Z,14.60
2019-04-20T14:47:00.147Z,14.70
2019-04-20T14:49:28.732Z,14.60
2019-04-20T14:51:58.154Z,14.40
2019-04-20T14:54:27.670Z,14.50
2019-04-20T14:56:56.365Z,14.30
2019-04-20T14:59:27.426Z,14.10
2019-04-20T15:02:00.861Z,14.30
2019-04-20T15:04:31.666Z,14.30
2019-04-20T15:07:00.405Z,14.30
2019-04-20T15:09:29.034Z,14.30
2019-04-20T15:11:58.938Z,14.40
2019-04-20T15:14:28.918Z,14.40
2019-04-20T15:16:58.434Z,14.20
2019-04-20T15:19:31.825Z,14.20
2019-04-20T15:22:03.153Z,14.20
2019-04-20T15:24:31.870Z,14.20
2019-04-20T15:27:00.548Z,14.10
2019-04-20T15:29:30.417Z,13.90
2019-04-20T15:31:59.891Z,13.80
2019-04-20T15:34:28.903Z,13.70
2019-04-20T15:36:58.189Z,13.70
2019-04-20T15:39:27.331Z,13.60
2019-04-20T15:41:57.079Z,13.60
2019-04-20T15:44:25.587Z,13.50
2019-04-20T15:46:55.246Z,13.50
2019-04-20T15:49:24.008Z,13.50
2019-04-20T15:51:52.622Z,13.40
2019-04-20T15:54:21.090Z,13.60
2019-04-20T15:56:56.490Z,13.60
2019-04-20T15:59:20.094Z,13.60
2019-04-20T16:01:51.379Z,13.50
2019-04-20T16:04:41.213Z,13.40
2019-04-20T16:07:08.784Z,13.20
2019-04-20T16:09:37.901Z,13.30
2019-04-20T16:12:06.894Z,13.40
2019-04-20T16:14:35.527Z,13.50
2019-04-20T16:17:07.429Z,13.50
2019-04-20T16:19:44.968Z,13.30
2019-04-20T16:22:05.827Z,13.40
2019-04-20T16:24:38.630Z,13.40
2019-04-20T16:27:25.575Z,13.10
2019-04-20T16:29:54.047Z,13.00
2019-04-20T16:32:24.806Z,13.10
2019-04-20T16:34:53.342Z,12.90
2019-04-20T16:37:24.809Z,13.00
2019-04-20T16:39:54.425Z,13.10
2019-04-20T16:42:24.673Z,14.60
2019-04-20T16:44:53.900Z,14.60
2019-04-20T16:47:22.383Z,13.80
2019-04-20T16:49:51.270Z,13.70
2019-04-20T16:52:21.114Z,13.60
2019-04-20T16:54:53.565Z,13.30
2019-04-20T16:57:21.989Z,12.90
2019-04-20T16:59:54.421Z,13.00
2019-04-20T17:02:22.767Z,12.80
2019-04-20T17:04:54.810Z,12.70
2019-04-20T17:07:37.294Z,12.70
2019-04-20T17:10:09.735Z,12.40
2019-04-20T17:12:43.729Z,12.20
2019-04-20T17:15:14.230Z,12.20
2019-04-20T17:17:49.286Z,12.10
2019-04-20T17:20:19.838Z,12.00
2019-04-20T17:22:50.774Z,11.90
2019-04-20T17:25:22.215Z,11.70
2019-04-20T17:28:17.475Z,11.60
2019-04-20T17:31:04.059Z,11.70
2019-04-20T17:33:55.372Z,11.50
2019-04-20T17:36:19.025Z,11.60
2019-04-20T17:38:48.513Z,11.40
2019-04-20T17:41:36.232Z,11.40
2019-04-20T17:44:01.420Z,11.30
2019-04-20T17:46:28.639Z,11.30
2019-04-20T17:49:00.681Z,11.40
2019-04-20T17:51:34.640Z,11.30
2019-04-20T17:53:55.814Z,11.30
2019-04-20T17:56:18.630Z,11.30
2019-04-20T17:58:48.014Z,11.20
2019-04-20T18:01:48.745Z,11.20
2019-04-20T18:04:42.985Z,11.20
2019-04-20T18:06:56.493Z,11.30
2019-04-20T18:09:37.164Z,11.30
2019-04-20T18:11:46.666Z,11.20
2019-04-20T18:14:31.520Z,11.20
2019-04-20T18:17:07.717Z,11.10
2019-04-20T18:19:24.726Z,11.10
2019-04-20T18:21:53.850Z,10.90
2019-04-20T18:24:43.619Z,10.90
2019-04-20T18:27:23.244Z,10.90
2019-04-20T18:29:40.914Z,10.80
2019-04-20T18:31:59.545Z,10.70
2019-04-20T18:34:54.147Z,10.70
2019-04-20T18:37:20.168Z,10.70
2019-04-20T18:39:53.404Z,10.70
2019-04-20T18:42:24.924Z,10.60
2019-04-20T18:45:10.708Z,10.50
2019-04-20T18:47:42.188Z,10.60
2019-04-20T18:49:57.169Z,10.50
2019-04-20T18:52:19.816Z,10.50
2019-04-20T18:54:52.002Z,10.40
2019-04-20T18:57:23.229Z,10.40
2019-04-20T18:59:54.117Z,10.40
2019-04-20T19:02:26.927Z,10.40
2019-04-20T19:04:50.109Z,10.20
2019-04-20T19:07:19.765Z,10.00
2019-04-20T19:09:53.287Z,10.10
2019-04-20T19:12:22.823Z,10.00
2019-04-20T19:15:18.641Z,10.00
2019-04-20T19:17:49.767Z,9.80
2019-04-20T19:20:27.534Z,9.90
2019-04-20T19:22:58.191Z,9.80
2019-04-20T19:25:31.589Z,9.80
2019-04-20T19:27:59.468Z,9.60
2019-04-20T19:30:35.303Z,9.60
2019-04-20T19:33:15.051Z,9.50
2019-04-20T19:35:41.706Z,9.60
2019-04-20T19:38:09.630Z,9.60
2019-04-20T19:40:42.907Z,9.60
2019-04-20T19:43:14.780Z,9.50
2019-04-20T19:46:05.578Z,9.50
2019-04-20T19:48:17.720Z,9.60
2019-04-20T19:50:54.710Z,9.60
2019-04-20T19:53:26.427Z,9.50
2019-04-20T19:55:47.826Z,9.60
2019-04-20T19:58:16.301Z,9.60
2019-04-20T20:00:50.574Z,9.70
2019-04-20T20:03:17.432Z,9.60
2019-04-20T20:05:48.060Z,9.60
2019-04-20T20:08:20.957Z,9.60
2019-04-20T20:10:46.408Z,9.60
2019-04-20T20:13:15.051Z,9.60
2019-04-20T20:15:45.097Z,9.60
2019-04-20T20:18:29.451Z,9.60
2019-04-20T20:20:59.640Z,9.60
2019-04-20T20:23:16.230Z,9.70
2019-04-20T20:25:49.223Z,9.60
2019-04-20T20:28:29.936Z,9.60
2019-04-20T20:30:56.854Z,9.60
2019-04-20T20:33:37.946Z,9.60
2019-04-20T20:35:55.345Z,9.60
2019-04-20T20:38:24.449Z,9.70
2019-04-20T20:41:02.952Z,9.60
2019-04-20T20:43:22.987Z,9.60
2019-04-20T20:46:01.175Z,9.70
2019-04-20T20:48:31.360Z,9.70
2019-04-20T20:51:07.759Z,9.70
2019-04-20T20:53:32.851Z,9.70
2019-04-20T20:55:59.246Z,9.60
2019-04-20T20:58:25.520Z,9.60
2019-04-20T21:00:57.590Z,9.50
2019-04-20T21:03:27.094Z,9.50
2019-04-20T21:05:49.586Z,9.50
2019-04-20T21:08:17.603Z,9.40
2019-04-20T21:10:47.700Z,9.30
2019-04-20T21:13:17.282Z,9.30
2019-04-20T21:15:52.282Z,9.20
2019-04-20T21:18:36.811Z,9.20
2019-04-20T21:21:02.144Z,9.20
2019-04-20T21:23:30.525Z,9.20
2019-04-20T21:26:04.699Z,9.20
2019-04-20T21:28:36.106Z,9.20
2019-04-20T21:31:11.306Z,9.10
2019-04-20T21:33:37.759Z,9.10
2019-04-20T21:36:06.996Z,9.00
2019-04-20T21:38:40.469Z,9.10
2019-04-20T21:41:11.266Z,8.90
2019-04-20T21:43:40.474Z,9.10
2019-04-20T21:46:08.962Z,9.10
2019-04-20T21:48:54.592Z,9.10
2019-04-20T21:51:22.884Z,9.10
2019-04-20T21:53:37.803Z,9.10
2019-04-20T21:56:08.107Z,9.10
2019-04-20T21:58:46.367Z,9.10
2019-04-20T22:01:16.314Z,9.20
2019-04-20T22:03:38.391Z,9.10
2019-04-20T22:06:08.544Z,9.10
2019-04-20T22:08:39.467Z,9.20
2019-04-20T22:11:08.152Z,9.20
2019-04-20T22:13:40.217Z,9.20
2019-04-20T22:16:10.562Z,9.20
2019-04-20T22:18:48.582Z,9.30
2019-04-20T22:21:19.862Z,9.30
2019-04-20T22:23:57.232Z,9.40
2019-04-20T22:26:18.792Z,9.40
2019-04-20T22:28:38.279Z,9.30
2019-04-20T22:31:06.748Z,9.30
2019-04-20T22:33:41.381Z,9.20
2019-04-20T22:36:12.312Z,9.20
2019-04-20T22:38:59.826Z,9.30
2019-04-20T22:41:28.097Z,9.40
2019-04-20T22:43:56.688Z,9.40
2019-04-20T22:46:31.846Z,9.50
2019-04-20T22:49:19.156Z,9.50
2019-04-20T22:51:39.972Z,9.50
2019-04-20T22:54:14.602Z,9.50
2019-04-20T22:56:39.053Z,9.50
2019-04-20T22:59:04.115Z,9.60
2019-04-20T23:01:32.110Z,9.70
2019-04-20T23:03:56.872Z,9.70
2019-04-20T23:06:34.943Z,9.80
2019-04-20T23:08:59.533Z,9.80
2019-04-20T23:11:30.028Z,9.80
2019-04-20T23:13:56.161Z,9.80
2019-04-20T23:16:27.935Z,9.90
2019-04-20T23:18:56.053Z,9.90
2019-04-20T23:21:25.876Z,9.90
2019-04-20T23:24:00.423Z,9.90
2019-04-20T23:26:30.157Z,10.00
2019-04-20T23:28:56.212Z,10.00
2019-04-20T23:31:26.626Z,10.00
2019-04-20T23:33:54.312Z,10.00
2019-04-20T23:36:29.260Z,10.00
2019-04-20T23:38:57.710Z,10.10
2019-04-20T23:41:23.834Z,10.10
2019-04-20T23:44:01.744Z,10.00
2019-04-20T23:46:28.290Z,10.00
2019-04-20T23:49:19.986Z,10.10
2019-04-20T23:52:05.743Z,10.00
2019-04-20T23:54:22.009Z,10.00
2019-04-20T23:56:43.938Z,9.90
2019-04-20T23:59:12.726Z,9.90
